createdAt,value
2023-03-05T00:01:26.348Z,66.17
2023-03-05T00:03:55.856Z,65.18
2023-03-05T00:06:25.800Z,67.31
2023-03-05T00:08:53.649Z,67.85
2023-03-05T00:11:21.948Z,66.68
2023-03-05T00:13:51.761Z,67.35
2023-03-05T00:16:18.808Z,67.44
2023-03-05T00:18:46.694Z,67.24
2023-03-05T00:21:21.570Z,66.17
2023-03-05T00:23:48.552Z,66.72
2023-03-05T00:26:15.792Z,65.56
2023-03-05T00:28:44.296Z,66.06
2023-03-05T00:31:11.561Z,66.88
2023-03-05T00:33:41.586Z,67.75
2023-03-05T00:36:09.042Z,66.98
2023-03-05T00:38:35.930Z,67.09
2023-03-05T00:41:02.533Z,68.23
2023-03-05T00:43:30.388Z,68.48
2023-03-05T00:45:57.340Z,68.76
2023-03-05T00:48:23.913Z,66.81
2023-03-05T00:50:50.766Z,67.77
2023-03-05T00:53:17.679Z,67.93
2023-03-05T00:55:45.266Z,66.95
2023-03-05T00:58:12.225Z,67.03
2023-03-05T01:00:39.026Z,67.94
2023-03-05T01:03:06.006Z,68.81
2023-03-05T01:05:33.470Z,68.17
2023-03-05T01:08:00.506Z,67.37
2023-03-05T01:10:27.923Z,68.73
2023-03-05T01:12:55.943Z,68.47
2023-03-05T01:15:24.947Z,70.37
2023-03-05T01:17:52.216Z,70.29
2023-03-05T01:20:28.533Z,68.89
2023-03-05T01:22:55.504Z,69.19
2023-03-05T01:25:22.311Z,69.58
2023-03-05T01:27:51.044Z,68.54
2023-03-05T01:30:18.579Z,68.34
2023-03-05T01:32:45.626Z,68.71
2023-03-05T01:35:24.775Z,68.28
2023-03-05T01:37:52.861Z,69.38
2023-03-05T01:40:26.217Z,68.58
2023-03-05T01:43:07.140Z,69.36
2023-03-05T01:45:34.370Z,68.28
2023-03-05T01:48:01.209Z,68.51
2023-03-05T01:50:29.272Z,67.90
2023-03-05T01:53:03.019Z,67.91
2023-03-05T01:55:33.042Z,68.12
2023-03-05T01:58:02.927Z,68.00
2023-03-05T02:00:34.235Z,67.11
2023-03-05T02:03:07.991Z,67.47
2023-03-05T02:05:41.182Z,67.08
2023-03-05T02:08:11.124Z,67.83
2023-03-05T02:10:43.896Z,67.87
2023-03-05T02:13:12.704Z,67.43
2023-03-05T02:15:40.196Z,68.06
2023-03-05T02:18:08.666Z,68.42
2023-03-05T02:20:49.376Z,67.17
2023-03-05T02:23:18.360Z,66.91
2023-03-05T02:25:45.680Z,66.71
2023-03-05T02:28:22.519Z,67.82
2023-03-05T02:30:50.214Z,67.36
2023-03-05T02:33:19.022Z,66.77
2023-03-05T02:35:46.480Z,67.51
2023-03-05T02:38:15.388Z,66.54
2023-03-05T02:40:42.464Z,66.83
2023-03-05T02:43:10.202Z,66.52
2023-03-05T02:45:38.290Z,68.01
2023-03-05T02:48:05.784Z,68.31
2023-03-05T02:50:34.316Z,67.89
2023-03-05T02:53:01.260Z,66.21
2023-03-05T02:55:29.037Z,67.40
2023-03-05T02:57:56.196Z,67.50
2023-03-05T03:00:23.041Z,66.77
2023-03-05T03:02:57.993Z,65.32
2023-03-05T03:05:27.411Z,64.83
2023-03-05T03:07:54.262Z,65.63
2023-03-05T03:10:27.434Z,65.08
2023-03-05T03:12:54.297Z,64.34
2023-03-05T03:15:21.277Z,63.60
2023-03-05T03:17:51.224Z,65.87
2023-03-05T03:20:19.285Z,61.86
2023-03-05T03:22:46.890Z,63.39
2023-03-05T03:25:19.098Z,64.91
2023-03-05T03:27:45.931Z,62.65
2023-03-05T03:30:13.392Z,64.00
2023-03-05T03:32:40.337Z,64.99
2023-03-05T03:35:08.168Z,65.05
2023-03-05T03:37:35.030Z,63.97
2023-03-05T03:40:02.118Z,65.80
2023-03-05T03:42:28.964Z,65.44
2023-03-05T03:44:56.038Z,65.39
2023-03-05T03:47:30.381Z,64.75
2023-03-05T03:49:58.771Z,64.33
2023-03-05T03:52:27.136Z,63.89
2023-03-05T03:54:55.887Z,63.92
2023-03-05T03:57:22.972Z,64.99
2023-03-05T03:59:50.486Z,64.13
2023-03-05T04:02:18.344Z,65.45
2023-03-05T04:04:45.295Z,65.25
2023-03-05T04:07:12.063Z,65.04
2023-03-05T04:09:39.095Z,65.96
2023-03-05T04:12:06.060Z,65.95
2023-03-05T04:14:33.327Z,66.18
2023-03-05T04:17:00.271Z,66.00
2023-03-05T04:19:28.448Z,67.42
2023-03-05T04:21:55.596Z,66.61
2023-03-05T04:24:22.634Z,65.91
2023-03-05T04:26:49.278Z,64.97
2023-03-05T04:29:20.817Z,65.57
2023-03-05T04:31:47.689Z,63.94
2023-03-05T04:34:14.257Z,63.82
2023-03-05T04:36:41.085Z,62.77
2023-03-05T04:39:08.183Z,63.78
2023-03-05T04:41:35.047Z,63.22
2023-03-05T04:44:02.278Z,61.85
2023-03-05T04:46:29.125Z,62.96
2023-03-05T04:49:02.223Z,64.02
2023-03-05T04:51:29.161Z,65.22
2023-03-05T04:53:56.528Z,64.51
2023-03-05T04:56:23.409Z,66.17
2023-03-05T04:58:50.481Z,65.05
2023-03-05T05:01:17.639Z,65.46
2023-03-05T05:03:44.417Z,65.95
2023-03-05T05:06:11.523Z,64.89
2023-03-05T05:08:38.533Z,64.93
2023-03-05T05:11:08.130Z,62.83
2023-03-05T05:13:35.216Z,63.11
2023-03-05T05:16:02.645Z,62.36
2023-03-05T05:18:30.923Z,63.24
2023-03-05T05:20:57.806Z,63.41
2023-03-05T05:23:25.438Z,61.63
2023-03-05T05:26:00.512Z,60.55
2023-03-05T05:28:28.103Z,60.24
2023-03-05T05:30:57.283Z,60.72
2023-03-05T05:33:24.644Z,59.17
2023-03-05T05:35:51.850Z,60.96
2023-03-05T05:38:19.471Z,62.07
2023-03-05T05:40:46.147Z,61.25
2023-03-05T05:43:12.989Z,60.39
2023-03-05T05:45:39.791Z,60.95
2023-03-05T05:48:07.255Z,59.23
2023-03-05T05:50:37.838Z,60.42
2023-03-05T05:53:04.871Z,61.30
2023-03-05T05:55:34.765Z,60.29
2023-03-05T05:58:01.575Z,60.53
2023-03-05T06:00:31.138Z,60.49
2023-03-05T06:03:01.047Z,61.25
2023-03-05T06:05:28.090Z,60.65
2023-03-05T06:07:54.991Z,60.57
2023-03-05T06:10:22.127Z,60.75
2023-03-05T06:12:48.926Z,61.34
2023-03-05T06:15:16.077Z,61.82
2023-03-05T06:17:42.940Z,59.65
2023-03-05T06:20:12.683Z,60.76
2023-03-05T06:22:40.713Z,60.27
2023-03-05T06:25:09.308Z,60.47
2023-03-05T06:27:38.952Z,61.77
2023-03-05T06:30:06.946Z,61.66
2023-03-05T06:32:35.996Z,60.72
2023-03-05T06:35:03.534Z,59.94
2023-03-05T06:37:30.248Z,60.33
2023-03-05T06:39:57.438Z,60.08
2023-03-05T06:42:24.476Z,59.59
2023-03-05T06:44:51.644Z,58.29
2023-03-05T06:47:18.643Z,57.53
2023-03-05T06:49:45.563Z,58.61
2023-03-05T06:52:16.641Z,60.38
2023-03-05T06:54:43.474Z,60.51
2023-03-05T06:57:11.118Z,60.61
2023-03-05T06:59:38.230Z,60.96
2023-03-05T07:02:05.077Z,60.27
2023-03-05T07:04:31.894Z,60.67
2023-03-05T07:07:00.759Z,59.54
2023-03-05T07:09:27.555Z,59.67
2023-03-05T07:11:54.457Z,58.69
2023-03-05T07:14:22.525Z,57.61
2023-03-05T07:16:50.429Z,55.52
2023-03-05T07:19:17.467Z,54.39
2023-03-05T07:21:46.606Z,53.72
2023-03-05T07:24:29.869Z,53.91
2023-03-05T07:26:57.617Z,51.77
2023-03-05T07:29:26.474Z,53.48
2023-03-05T07:31:54.112Z,53.80
2023-03-05T07:34:29.882Z,54.07
2023-03-05T07:36:57.379Z,54.49
2023-03-05T07:39:27.202Z,53.49
2023-03-05T07:41:57.728Z,52.76
2023-03-05T07:44:29.788Z,53.52
2023-03-05T07:46:57.312Z,53.79
2023-03-05T07:49:24.717Z,53.63
2023-03-05T07:51:52.620Z,52.52
2023-03-05T07:54:19.419Z,52.74
2023-03-05T07:56:46.550Z,52.91
2023-03-05T07:59:14.029Z,53.91
2023-03-05T08:01:41.150Z,54.67
2023-03-05T08:04:11.013Z,52.05
2023-03-05T08:06:42.456Z,54.16
2023-03-05T08:09:10.177Z,52.82
2023-03-05T08:11:37.130Z,53.87
2023-03-05T08:14:04.768Z,53.35
2023-03-05T08:16:32.620Z,53.23
2023-03-05T08:19:00.224Z,53.19
2023-03-05T08:21:35.841Z,52.62
2023-03-05T08:24:06.631Z,51.15
2023-03-05T08:26:35.974Z,51.98
2023-03-05T08:29:03.706Z,51.50
2023-03-05T08:31:31.580Z,50.85
2023-03-05T08:34:00.721Z,51.39
2023-03-05T08:36:29.192Z,50.43
2023-03-05T08:39:01.573Z,48.30
2023-03-05T08:41:28.884Z,45.99
2023-03-05T08:43:56.128Z,44.59
2023-03-05T08:46:23.545Z,44.30
2023-03-05T08:48:50.444Z,42.87
2023-03-05T08:51:21.198Z,42.05
2023-03-05T08:53:48.581Z,41.78
2023-03-05T08:56:15.674Z,41.91
2023-03-05T08:58:43.168Z,43.52
2023-03-05T09:01:10.276Z,43.11
2023-03-05T09:03:37.366Z,45.20
2023-03-05T09:06:11.735Z,45.08
2023-03-05T09:08:39.903Z,45.97
2023-03-05T09:11:09.749Z,45.32
2023-03-05T09:13:37.513Z,45.95
2023-03-05T09:16:08.564Z,46.15
2023-03-05T09:18:38.567Z,45.97
2023-03-05T09:21:07.468Z,46.45
2023-03-05T09:23:34.899Z,48.00
2023-03-05T09:26:08.690Z,47.33
2023-03-05T09:28:35.831Z,47.85
2023-03-05T09:31:04.327Z,46.72
2023-03-05T09:33:32.926Z,47.98
2023-03-05T09:36:01.404Z,48.36
2023-03-05T09:38:28.785Z,47.95
2023-03-05T09:41:15.875Z,50.07
2023-03-05T09:44:06.073Z,50.61
2023-03-05T09:46:44.126Z,49.69
2023-03-05T09:49:39.416Z,48.87
2023-03-05T09:52:26.783Z,50.99
2023-03-05T09:54:57.204Z,51.57
2023-03-05T09:57:44.589Z,50.63
2023-03-05T10:00:38.680Z,50.27
2023-03-05T10:03:13.352Z,51.19
2023-03-05T10:05:50.797Z,50.99
2023-03-05T10:08:22.422Z,51.01
2023-03-05T10:10:53.604Z,50.90
2023-03-05T10:13:25.552Z,49.69
2023-03-05T10:16:13.622Z,50.02
2023-03-05T10:18:51.873Z,50.38
2023-03-05T10:21:30.660Z,49.93
2023-03-05T10:24:12.221Z,49.14
2023-03-05T10:27:15.646Z,50.00
2023-03-05T10:29:59.614Z,49.08
2023-03-05T10:32:35.630Z,48.75
2023-03-05T10:35:53.465Z,48.81
2023-03-05T10:39:02.385Z,48.42
2023-03-05T10:41:55.165Z,49.33
2023-03-05T10:44:35.508Z,48.24
2023-03-05T10:47:03.784Z,49.38
2023-03-05T10:49:37.765Z,50.57
2023-03-05T10:52:28.586Z,49.57
2023-03-05T10:54:55.444Z,49.58
2023-03-05T10:57:25.138Z,49.86
2023-03-05T11:00:18.610Z,50.30
2023-03-05T11:03:04.785Z,49.80
2023-03-05T11:05:42.379Z,47.89
2023-03-05T11:08:28.762Z,47.39
2023-03-05T11:11:17.916Z,48.85
2023-03-05T11:13:59.980Z,47.99
2023-03-05T11:16:30.443Z,48.50
2023-03-05T11:19:21.398Z,47.48
2023-03-05T11:22:15.911Z,48.45
2023-03-05T11:24:46.792Z,46.58
2023-03-05T11:27:55.019Z,45.48
2023-03-05T11:30:26.040Z,47.20
2023-03-05T11:33:17.779Z,45.78
2023-03-05T11:35:45.193Z,46.57
2023-03-05T11:38:24.707Z,46.64
2023-03-05T11:40:53.848Z,45.85
2023-03-05T11:43:23.966Z,46.25
2023-03-05T11:45:59.629Z,44.96
2023-03-05T11:48:35.136Z,45.38
2023-03-05T11:51:19.665Z,46.24
2023-03-05T11:53:52.456Z,44.97
2023-03-05T11:56:21.661Z,45.47
2023-03-05T11:59:28.469Z,44.81
2023-03-05T12:01:57.658Z,45.26
2023-03-05T12:04:25.412Z,44.46
2023-03-05T12:06:56.030Z,45.07
2023-03-05T12:09:44.465Z,45.18
2023-03-05T12:12:38.939Z,44.79
2023-03-05T12:15:15.471Z,44.76
2023-03-05T12:18:02.146Z,43.11
2023-03-05T12:20:53.788Z,42.79
2023-03-05T12:23:28.166Z,42.15
2023-03-05T12:26:00.072Z,42.46
2023-03-05T12:28:36.621Z,42.16
2023-03-05T12:31:10.263Z,41.54
2023-03-05T12:33:44.727Z,42.48
2023-03-05T12:36:17.658Z,43.15
2023-03-05T12:38:53.588Z,42.80
2023-03-05T12:41:23.514Z,45.82
2023-03-05T12:44:19.110Z,44.96
2023-03-05T12:47:07.594Z,45.68
2023-03-05T12:49:46.027Z,44.78
2023-03-05T12:52:25.215Z,44.91
2023-03-05T12:55:14.957Z,45.29
2023-03-05T12:57:45.940Z,44.57
2023-03-05T13:00:43.315Z,43.61
2023-03-05T13:03:16.997Z,43.98
2023-03-05T13:05:53.861Z,44.01
2023-03-05T13:08:25.912Z,45.14
2023-03-05T13:10:55.257Z,45.87
2023-03-05T13:13:23.925Z,45.14
2023-03-05T13:15:52.785Z,45.04
2023-03-05T13:18:31.987Z,44.17
2023-03-05T13:21:04.572Z,44.84
2023-03-05T13:23:33.270Z,45.10
2023-03-05T13:26:12.838Z,44.17
2023-03-05T13:28:40.191Z,44.82
2023-03-05T13:31:18.650Z,45.22
2023-03-05T13:33:56.381Z,44.37
2023-03-05T13:36:27.132Z,44.40
2023-03-05T13:38:54.465Z,43.91
2023-03-05T13:41:28.501Z,43.51
2023-03-05T13:43:56.588Z,43.30
2023-03-05T13:46:39.316Z,43.64
2023-03-05T13:49:27.379Z,44.96
2023-03-05T13:51:58.086Z,45.04
2023-03-05T13:54:27.028Z,44.34
2023-03-05T13:56:59.936Z,44.55
2023-03-05T13:59:31.762Z,45.04
2023-03-05T14:02:01.126Z,44.61
2023-03-05T14:04:34.721Z,44.58
2023-03-05T14:07:41.727Z,44.60
2023-03-05T14:10:35.089Z,45.52
2023-03-05T14:13:25.771Z,44.19
2023-03-05T14:16:28.178Z,46.06
2023-03-05T14:19:01.716Z,46.12
2023-03-05T14:21:47.660Z,46.20
2023-03-05T14:24:50.584Z,46.45
2023-03-05T14:28:07.574Z,47.78
2023-03-05T14:30:50.725Z,47.26
2023-03-05T14:33:36.998Z,47.57
2023-03-05T14:36:05.029Z,47.62
2023-03-05T14:38:36.364Z,46.09
2023-03-05T14:41:22.777Z,46.77
2023-03-05T14:43:50.229Z,47.43
2023-03-05T14:46:17.458Z,46.82
2023-03-05T14:48:45.115Z,47.09
2023-03-05T14:51:12.979Z,47.13
2023-03-05T14:53:48.448Z,46.82
2023-03-05T14:56:24.454Z,46.43
2023-03-05T14:58:57.843Z,45.83
2023-03-05T15:01:25.500Z,45.47
2023-03-05T15:03:52.962Z,45.26
2023-03-05T15:06:50.762Z,46.86
2023-03-05T15:09:19.916Z,46.43
2023-03-05T15:11:48.326Z,45.58
2023-03-05T15:14:15.196Z,44.72
2023-03-05T15:16:43.467Z,45.65
2023-03-05T15:19:13.844Z,45.10
2023-03-05T15:21:41.700Z,46.19
2023-03-05T15:24:11.320Z,45.21
2023-03-05T15:26:38.653Z,45.78
2023-03-05T15:29:05.692Z,45.59
2023-03-05T15:31:38.689Z,45.36
2023-03-05T15:34:06.468Z,45.68
2023-03-05T15:36:37.154Z,46.50
2023-03-05T15:39:04.137Z,45.84
2023-03-05T15:41:31.257Z,46.11
2023-03-05T15:43:58.292Z,45.44
2023-03-05T15:46:25.770Z,45.67
2023-03-05T15:48:52.681Z,45.88
2023-03-05T15:51:20.514Z,45.68
2023-03-05T15:53:47.886Z,44.92
2023-03-05T15:56:16.791Z,45.59
2023-03-05T15:58:43.708Z,45.83
2023-03-05T16:01:12.076Z,46.01
2023-03-05T16:03:41.387Z,44.94
2023-03-05T16:06:26.719Z,44.90
2023-03-05T16:09:14.096Z,44.53
2023-03-05T16:11:48.225Z,44.74
2023-03-05T16:14:19.483Z,45.06
2023-03-05T16:16:47.878Z,45.65
2023-03-05T16:19:18.249Z,46.38
2023-03-05T16:21:47.177Z,46.76
2023-03-05T16:24:20.369Z,47.10
2023-03-05T16:26:47.870Z,47.54
2023-03-05T16:29:17.457Z,47.26
2023-03-05T16:31:46.314Z,47.31
2023-03-05T16:34:14.616Z,47.69
2023-03-05T16:36:48.513Z,47.25
2023-03-05T16:39:15.648Z,47.32
2023-03-05T16:41:42.881Z,48.08
2023-03-05T16:44:11.190Z,48.50
2023-03-05T16:46:41.400Z,47.54
2023-03-05T16:49:09.141Z,48.15
2023-03-05T16:51:36.838Z,48.46
2023-03-05T16:54:10.088Z,49.22
2023-03-05T16:56:38.735Z,48.43
2023-03-05T16:59:05.994Z,48.43
2023-03-05T17:01:33.319Z,48.18
2023-03-05T17:04:00.659Z,49.13
2023-03-05T17:06:31.326Z,49.16
2023-03-05T17:08:59.201Z,49.22
2023-03-05T17:11:29.186Z,49.17
2023-03-05T17:13:56.376Z,50.03
2023-03-05T17:16:23.309Z,49.07
2023-03-05T17:18:50.277Z,49.24
2023-03-05T17:21:17.532Z,48.83
2023-03-05T17:23:44.802Z,48.36
2023-03-05T17:26:15.516Z,48.57
2023-03-05T17:28:42.942Z,47.92
2023-03-05T17:31:10.814Z,48.42
2023-03-05T17:33:38.606Z,49.02
2023-03-05T17:36:06.489Z,49.35
2023-03-05T17:38:33.324Z,49.70
2023-03-05T17:40:59.987Z,50.12
2023-03-05T17:43:26.966Z,51.78
2023-03-05T17:45:59.828Z,51.77
2023-03-05T17:48:28.141Z,50.47
2023-03-05T17:50:58.416Z,51.78
2023-03-05T17:53:25.303Z,53.42
2023-03-05T17:55:52.769Z,53.21
2023-03-05T17:58:20.065Z,52.53
2023-03-05T18:00:47.128Z,53.69
2023-03-05T18:03:14.702Z,53.11
2023-03-05T18:05:42.102Z,54.42
2023-03-05T18:08:09.587Z,52.52
2023-03-05T18:10:41.501Z,53.05
2023-03-05T18:13:09.129Z,54.25
2023-03-05T18:15:38.203Z,55.61
2023-03-05T18:18:07.530Z,54.51
2023-03-05T18:20:37.528Z,55.08
2023-03-05T18:23:06.125Z,55.77
2023-03-05T18:25:34.109Z,55.68
2023-03-05T18:28:08.559Z,54.55
2023-03-05T18:30:36.623Z,54.21
2023-03-05T18:33:09.312Z,54.74
2023-03-05T18:35:36.903Z,54.91
2023-03-05T18:38:06.548Z,54.86
2023-03-05T18:40:35.897Z,54.56
2023-03-05T18:43:03.146Z,55.15
2023-03-05T18:45:35.924Z,54.61
2023-03-05T18:48:03.122Z,54.43
2023-03-05T18:50:30.469Z,54.90
2023-03-05T18:52:57.583Z,53.91
2023-03-05T18:55:28.073Z,54.46
2023-03-05T18:57:55.929Z,53.83
2023-03-05T19:00:53.667Z,54.18
2023-03-05T19:03:22.868Z,53.58
2023-03-05T19:05:51.254Z,53.55
2023-03-05T19:08:18.833Z,53.84
2023-03-05T19:10:49.522Z,53.92
2023-03-05T19:13:37.005Z,53.63
2023-03-05T19:16:11.893Z,53.12
2023-03-05T19:18:44.893Z,53.96
2023-03-05T19:21:12.238Z,54.49
2023-03-05T19:23:39.251Z,53.66
2023-03-05T19:26:06.257Z,53.33
2023-03-05T19:28:33.342Z,53.83
2023-03-05T19:31:00.362Z,53.00
2023-03-05T19:33:27.446Z,53.44
2023-03-05T19:38:24.955Z,52.73
2023-03-05T19:40:51.983Z,52.48
2023-03-05T19:43:18.885Z,52.74
2023-03-05T19:45:46.244Z,52.76
2023-03-05T19:48:14.135Z,52.55
2023-03-05T19:50:41.130Z,53.25
2023-03-05T19:53:08.058Z,54.58
2023-03-05T19:55:42.484Z,54.13
2023-03-05T19:58:09.494Z,53.29
2023-03-05T20:00:36.630Z,52.81
2023-03-05T20:03:03.718Z,53.19
2023-03-05T20:05:30.792Z,53.77
2023-03-05T20:07:58.051Z,52.78
2023-03-05T20:10:25.687Z,53.49
2023-03-05T20:12:53.886Z,53.47
2023-03-05T20:15:23.451Z,53.25
2023-03-05T20:17:52.716Z,53.39
2023-03-05T20:20:19.942Z,53.97
2023-03-05T20:22:47.644Z,53.50
2023-03-05T20:25:17.618Z,54.67
2023-03-05T20:27:50.916Z,53.48
2023-03-05T20:30:18.059Z,53.94
2023-03-05T20:34:39.640Z,54.49
2023-03-05T20:37:06.707Z,54.75
2023-03-05T20:39:37.994Z,54.77
2023-03-05T20:42:05.459Z,54.35
2023-03-05T20:44:33.718Z,54.68
2023-03-05T20:47:12.663Z,53.84
2023-03-05T20:49:39.790Z,55.13
2023-03-05T20:52:06.817Z,54.30
2023-03-05T20:54:34.080Z,54.52
2023-03-05T20:57:02.402Z,53.99
2023-03-05T20:59:29.239Z,54.13
2023-03-05T21:01:56.493Z,53.18
2023-03-05T21:04:23.327Z,52.98
2023-03-05T21:06:53.676Z,53.55
2023-03-05T21:09:21.839Z,52.46
2023-03-05T21:11:48.778Z,53.99
2023-03-05T21:14:15.624Z,53.45
2023-03-05T21:16:43.378Z,54.54
2023-03-05T21:19:10.835Z,54.80
2023-03-05T21:21:39.173Z,54.65
2023-03-05T21:24:06.761Z,54.35
2023-03-05T21:26:33.846Z,54.46
2023-03-05T21:29:00.669Z,54.86
2023-03-05T21:31:28.071Z,54.13
2023-03-05T21:33:55.007Z,54.84
2023-03-05T21:36:23.742Z,54.94
2023-03-05T21:38:50.697Z,55.15
2023-03-05T21:41:20.510Z,55.09
2023-03-05T21:43:48.159Z,55.15
2023-03-05T21:46:15.341Z,55.35
2023-03-05T21:48:42.782Z,55.32
2023-03-05T21:51:11.589Z,55.10
2023-03-05T21:53:38.575Z,55.50
2023-03-05T21:56:21.232Z,57.18
2023-03-05T21:58:49.993Z,56.56
2023-03-05T22:01:19.320Z,55.87
2023-03-05T22:03:46.845Z,57.78
2023-03-05T22:06:16.695Z,56.93
2023-03-05T22:08:44.237Z,56.94
2023-03-05T22:11:16.814Z,56.82
2023-03-05T22:13:44.761Z,56.13
2023-03-05T22:16:12.232Z,57.25
2023-03-05T22:18:39.023Z,56.74
2023-03-05T22:21:14.891Z,58.14
2023-03-05T22:23:42.156Z,58.09
2023-03-05T22:26:09.856Z,58.55
2023-03-05T22:28:39.054Z,58.54
2023-03-05T22:31:06.792Z,59.61
2023-03-05T22:33:34.297Z,59.07
2023-03-05T22:36:07.750Z,59.30
2023-03-05T22:38:34.674Z,58.77
2023-03-05T22:41:01.580Z,58.95
2023-03-05T22:43:28.583Z,60.14
2023-03-05T22:45:55.571Z,59.28
2023-03-05T22:48:22.824Z,60.12
2023-03-05T22:50:57.774Z,60.02
2023-03-05T22:53:24.835Z,60.21
2023-03-05T22:55:51.810Z,60.34
2023-03-05T22:58:18.953Z,60.07
2023-03-05T23:00:46.148Z,58.98
2023-03-05T23:03:13.381Z,60.18
2023-03-05T23:05:40.890Z,59.67
2023-03-05T23:08:08.491Z,60.83
2023-03-05T23:10:35.478Z,59.61
2023-03-05T23:13:02.465Z,59.68
2023-03-05T23:15:38.211Z,60.33
2023-03-05T23:18:06.629Z,60.67
2023-03-05T23:20:36.387Z,61.08
2023-03-05T23:23:04.189Z,59.23
2023-03-05T23:25:34.225Z,60.39
2023-03-05T23:28:02.018Z,61.27
2023-03-05T23:30:37.378Z,60.09
2023-03-05T23:33:16.154Z,60.79
2023-03-05T23:35:48.848Z,59.94
2023-03-05T23:38:16.511Z,59.53
2023-03-05T23:40:51.824Z,60.46
2023-03-05T23:43:20.015Z,60.84
2023-03-05T23:45:48.985Z,60.16
2023-03-05T23:48:17.527Z,60.78
2023-03-05T23:50:47.559Z,60.62
2023-03-05T23:53:25.431Z,60.08
2023-03-05T23:55:52.427Z,58.72
2023-03-05T23:58:22.472Z,58.22
